Time;durP1;ratioP1;P1;durP2;ratioP2;P2;SDS_P1;SDS_P2;PMS_P1;PMS_P2;Temp;Humidity;BMP_temperature;BMP_pressure;BME280_temperature;BME280_humidity;BME280_pressure;Samples;Min_cycle;Max_cycle;Signal;HPM_P1;HPM_P2
2022/01/03 00:01:44;;;;;;;8.82;5.70;;;10.30;99.90;;;;;;5053684;28;20235;-69
2022/01/03 00:04:34;;;;;;;8.65;5.30;;;10.30;99.90;;;;;;5037634;28;20230;-70
2022/01/03 00:07:26;;;;;;;9.73;5.63;;;10.30;99.90;;;;;;5035278;28;20221;-73
2022/01/03 00:10:21;;;;;;;10.23;5.63;;;10.30;99.90;;;;;;5049063;28;20232;-70
2022/01/03 00:13:09;;;;;;;9.70;5.50;;;10.30;99.90;;;;;;5049034;28;20228;-71
2022/01/03 00:15:59;;;;;;;8.95;5.20;;;10.30;99.90;;;;;;5052737;28;20250;-71
2022/01/03 00:18:49;;;;;;;8.95;5.32;;;10.20;99.90;;;;;;5040969;28;20702;-71
2022/01/03 00:21:44;;;;;;;11.35;5.30;;;10.20;99.90;;;;;;5052478;28;20921;-70
2022/01/03 00:24:35;;;;;;;8.02;5.28;;;10.20;99.90;;;;;;5042897;28;20242;-70
2022/01/03 00:27:29;;;;;;;8.82;5.53;;;10.10;99.90;;;;;;5029866;28;20254;-72
2022/01/03 00:30:23;;;;;;;9.90;5.30;;;10.20;99.90;;;;;;5036051;28;20220;-72
2022/01/03 00:33:14;;;;;;;7.73;5.00;;;10.20;99.90;;;;;;5052117;28;20216;-71
2022/01/03 00:36:05;;;;;;;10.65;5.28;;;10.20;99.90;;;;;;5039980;28;20220;-71
2022/01/03 00:38:56;;;;;;;7.65;4.78;;;10.20;99.90;;;;;;5039259;28;20374;-72
2022/01/03 00:41:49;;;;;;;7.70;4.82;;;10.20;99.90;;;;;;5048168;28;20231;-70
2022/01/03 00:44:38;;;;;;;11.48;5.03;;;10.20;99.90;;;;;;5040812;28;20223;-71
2022/01/03 00:47:30;;;;;;;9.68;5.00;;;10.30;99.90;;;;;;5053664;28;20235;-72
2022/01/03 00:50:21;;;;;;;8.25;4.85;;;10.30;99.90;;;;;;5025715;28;20217;-72
2022/01/03 00:53:10;;;;;;;8.02;5.05;;;10.30;99.90;;;;;;5052530;28;20220;-72
2022/01/03 00:56:04;;;;;;;7.95;5.20;;;10.30;99.90;;;;;;5054330;28;20223;-71
2022/01/03 00:58:56;;;;;;;7.25;4.75;;;10.40;99.90;;;;;;5050392;28;20337;-72
2022/01/03 01:01:47;;;;;;;10.52;4.82;;;10.30;99.90;;;;;;5049713;28;20256;-71
2022/01/03 01:04:38;;;;;;;9.00;4.72;;;10.30;99.90;;;;;;5049268;28;20925;-71
2022/01/03 01:07:31;;;;;;;9.07;4.72;;;10.40;99.90;;;;;;5047703;28;20413;-71
2022/01/03 01:10:24;;;;;;;11.23;5.10;;;10.40;99.90;;;;;;5032473;28;20247;-71
2022/01/03 01:13:15;;;;;;;10.45;4.78;;;10.30;99.90;;;;;;5032545;28;20220;-69
2022/01/03 01:16:06;;;;;;;7.93;4.65;;;10.40;99.90;;;;;;5044442;28;20279;-70
2022/01/03 01:19:03;;;;;;;8.43;4.78;;;10.30;99.90;;;;;;5053643;28;20319;-69
2022/01/03 01:21:53;;;;;;;7.93;4.57;;;10.30;99.90;;;;;;5052696;28;20743;-70
2022/01/03 01:24:49;;;;;;;9.45;4.95;;;10.30;99.90;;;;;;5047329;28;20697;-71
2022/01/03 01:27:47;;;;;;;7.35;4.18;;;10.20;99.90;;;;;;5044810;28;20762;-71
2022/01/03 01:30:37;;;;;;;6.03;4.40;;;10.20;99.90;;;;;;5043093;28;20217;-70
2022/01/03 01:33:36;;;;;;;8.73;4.22;;;10.20;99.90;;;;;;5038029;28;20227;-72
2022/01/03 01:36:35;;;;;;;5.95;3.65;;;10.20;99.90;;;;;;5041826;28;20255;-72
2022/01/03 01:39:29;;;;;;;8.38;4.60;;;10.10;99.90;;;;;;5050424;28;20899;-72
2022/01/03 01:42:21;;;;;;;8.45;4.80;;;10.10;99.90;;;;;;5051268;28;20930;-71
2022/01/03 01:45:15;;;;;;;7.68;3.85;;;10.10;99.90;;;;;;5041372;28;20232;-72
2022/01/03 01:48:05;;;;;;;6.75;4.25;;;10.00;99.90;;;;;;5042021;28;20220;-72
2022/01/03 01:50:55;;;;;;;6.15;3.90;;;10.00;99.90;;;;;;5049786;28;21048;-71
2022/01/03 01:53:46;;;;;;;8.80;4.10;;;10.00;99.90;;;;;;5054274;28;20307;-73
2022/01/03 01:56:40;;;;;;;6.87;4.00;;;10.00;99.90;;;;;;5049215;28;20778;-71
2022/01/03 01:59:39;;;;;;;6.35;3.80;;;10.00;99.90;;;;;;5022313;28;20224;-72
2022/01/03 02:02:38;;;;;;;5.95;3.42;;;10.10;99.90;;;;;;5035630;28;20239;-71
2022/01/03 02:05:32;;;;;;;6.40;3.47;;;10.20;99.90;;;;;;5030862;28;20234;-72
2022/01/03 02:08:28;;;;;;;6.57;3.80;;;10.20;99.90;;;;;;5041695;28;20297;-71
2022/01/03 02:11:37;;;;;;;6.13;3.63;;;10.10;99.90;;;;;;5037872;28;20231;-73
2022/01/03 02:14:36;;;;;;;5.47;3.73;;;10.10;99.90;;;;;;5035844;28;20834;-72
2022/01/03 02:17:34;;;;;;;7.57;3.92;;;10.10;99.90;;;;;;5041369;28;20239;-71
2022/01/03 02:20:27;;;;;;;6.47;3.67;;;10.10;99.90;;;;;;5026562;28;20216;-72
2022/01/03 02:23:25;;;;;;;7.35;3.80;;;10.10;99.90;;;;;;5038829;28;20248;-72
2022/01/03 02:26:18;;;;;;;8.05;3.65;;;10.10;99.90;;;;;;5045387;28;20254;-72
2022/01/03 02:29:07;;;;;;;6.10;3.60;;;10.00;99.90;;;;;;5051448;28;20553;-71
2022/01/03 02:31:56;;;;;;;8.73;3.75;;;10.00;99.90;;;;;;5038842;28;20219;-70
2022/01/03 02:34:45;;;;;;;7.20;3.88;;;10.00;99.90;;;;;;5038960;28;20281;-71
2022/01/03 02:37:39;;;;;;;6.50;3.35;;;9.90;99.90;;;;;;5033824;28;20239;-71
2022/01/03 02:40:33;;;;;;;6.80;3.57;;;9.90;99.90;;;;;;5039250;28;20270;-70
2022/01/03 02:43:23;;;;;;;7.20;3.83;;;9.90;99.90;;;;;;5049371;28;20228;-71
2022/01/03 02:46:15;;;;;;;4.65;3.50;;;9.90;99.90;;;;;;5049662;28;20253;-72
2022/01/03 02:49:05;;;;;;;5.78;3.42;;;9.90;99.90;;;;;;5038415;28;20885;-72
2022/01/03 02:51:55;;;;;;;4.88;3.25;;;9.90;99.90;;;;;;5034860;28;20231;-71
2022/01/03 02:54:45;;;;;;;6.18;3.30;;;9.90;99.90;;;;;;5036323;28;20228;-71
2022/01/03 02:57:35;;;;;;;4.75;3.40;;;9.80;99.90;;;;;;5039990;28;20232;-69
2022/01/03 03:00:30;;;;;;;5.97;3.28;;;9.80;99.90;;;;;;5042812;28;20238;-72
2022/01/03 03:03:21;;;;;;;5.50;3.30;;;9.70;99.90;;;;;;5042140;28;20231;-70
2022/01/03 03:06:12;;;;;;;7.97;3.80;;;9.70;99.90;;;;;;5032768;28;20294;-71
2022/01/03 03:09:04;;;;;;;5.57;3.50;;;9.70;99.90;;;;;;5034686;28;20248;-70
2022/01/03 03:11:54;;;;;;;7.40;3.70;;;9.60;99.90;;;;;;5047334;28;20219;-70
2022/01/03 03:14:43;;;;;;;4.78;3.22;;;9.60;99.90;;;;;;5051402;28;20303;-70
2022/01/03 03:17:32;;;;;;;4.70;3.13;;;9.60;99.90;;;;;;5039589;28;20247;-71
2022/01/03 03:20:23;;;;;;;6.60;3.50;;;9.50;99.90;;;;;;5036213;28;20239;-70
2022/01/03 03:23:12;;;;;;;6.40;3.92;;;9.50;99.90;;;;;;5050178;28;20342;-71
2022/01/03 03:26:02;;;;;;;7.78;3.60;;;9.40;99.90;;;;;;5050113;28;20232;-70
2022/01/03 03:28:53;;;;;;;6.07;3.60;;;9.40;99.90;;;;;;5050832;28;20867;-71
2022/01/03 03:31:43;;;;;;;7.95;3.60;;;9.40;99.90;;;;;;5048154;28;20685;-71
2022/01/03 03:34:34;;;;;;;6.27;3.50;;;9.40;99.90;;;;;;5037606;28;20251;-70
2022/01/03 03:37:23;;;;;;;7.53;3.47;;;9.30;99.90;;;;;;5041232;28;20279;-70
2022/01/03 03:40:13;;;;;;;6.40;3.20;;;9.40;99.90;;;;;;5034095;28;20221;-70
2022/01/03 03:43:04;;;;;;;6.03;3.27;;;9.40;99.90;;;;;;5038743;28;20246;-69
2022/01/03 03:45:54;;;;;;;7.65;3.30;;;9.40;99.90;;;;;;5035641;28;20242;-70
2022/01/03 03:48:43;;;;;;;5.13;3.15;;;9.40;99.90;;;;;;5036797;28;20232;-71
2022/01/03 03:51:38;;;;;;;5.67;3.03;;;9.30;99.90;;;;;;5053285;28;20225;-72
2022/01/03 03:54:27;;;;;;;4.40;3.13;;;9.40;99.90;;;;;;5033089;28;20224;-70
2022/01/03 03:57:16;;;;;;;8.50;3.20;;;9.30;99.90;;;;;;5039455;28;20222;-70
2022/01/03 04:00:07;;;;;;;4.75;3.45;;;9.30;99.90;;;;;;5038117;28;20375;-71
2022/01/03 04:03:01;;;;;;;7.83;3.47;;;9.30;99.90;;;;;;5051590;28;20242;-69
2022/01/03 04:05:52;;;;;;;8.00;3.30;;;9.20;99.90;;;;;;5035618;28;20283;-68
2022/01/03 04:08:41;;;;;;;4.45;3.15;;;9.20;99.90;;;;;;5041699;28;21037;-71
2022/01/03 04:11:30;;;;;;;6.03;3.60;;;9.10;99.90;;;;;;5048627;28;20826;-71
2022/01/03 04:14:21;;;;;;;6.87;3.37;;;9.10;99.90;;;;;;5038056;28;20934;-71
2022/01/03 04:17:10;;;;;;;5.60;3.30;;;9.10;99.90;;;;;;5036295;28;20230;-71
2022/01/03 04:20:01;;;;;;;6.93;3.67;;;9.10;99.90;;;;;;5030703;28;20746;-70
2022/01/03 04:22:50;;;;;;;6.60;3.60;;;9.00;99.90;;;;;;5037329;28;20578;-71
2022/01/03 04:25:39;;;;;;;9.68;3.97;;;9.00;99.90;;;;;;5039383;28;20236;-72
2022/01/03 04:28:29;;;;;;;8.60;4.28;;;9.00;99.90;;;;;;5051263;28;20227;-69
2022/01/03 04:31:18;;;;;;;7.97;4.97;;;9.00;99.90;;;;;;5037601;28;20228;-71
2022/01/03 04:34:08;;;;;;;9.70;4.30;;;8.90;99.90;;;;;;5035786;28;20311;-71
2022/01/03 04:36:58;;;;;;;8.17;4.80;;;8.90;99.90;;;;;;5051959;28;20236;-70
2022/01/03 04:39:47;;;;;;;6.80;4.87;;;8.90;99.90;;;;;;5033389;28;20370;-71
2022/01/03 04:42:36;;;;;;;9.20;5.10;;;8.90;99.90;;;;;;5035300;28;20274;-71
2022/01/03 04:45:25;;;;;;;9.50;4.67;;;8.90;99.90;;;;;;5036352;28;20235;-71
2022/01/03 04:48:14;;;;;;;8.80;4.83;;;8.90;99.90;;;;;;5045613;28;20231;-72
2022/01/03 04:51:03;;;;;;;7.43;4.77;;;8.90;99.90;;;;;;5037306;28;20821;-70
2022/01/03 04:53:56;;;;;;;8.00;4.97;;;8.80;99.90;;;;;;5050678;28;21359;-70
2022/01/03 04:56:45;;;;;;;6.47;4.60;;;8.80;99.90;;;;;;5038595;28;20239;-71
2022/01/03 04:59:34;;;;;;;8.23;4.73;;;8.80;99.90;;;;;;5051569;28;20219;-71
2022/01/03 05:02:23;;;;;;;11.23;5.63;;;8.80;99.90;;;;;;5056679;28;20714;-70
2022/01/03 05:05:13;;;;;;;6.97;4.60;;;8.80;99.90;;;;;;5039772;28;20231;-70
2022/01/03 05:08:02;;;;;;;8.53;5.33;;;8.80;99.90;;;;;;5038961;28;20231;-70
2022/01/03 05:10:52;;;;;;;11.27;5.37;;;8.80;99.90;;;;;;5033686;28;20247;-70
2022/01/03 05:13:41;;;;;;;7.00;5.37;;;8.80;99.90;;;;;;5040381;28;20219;-71
2022/01/03 05:16:30;;;;;;;9.70;4.87;;;8.80;99.90;;;;;;5041686;28;20256;-67
2022/01/03 05:19:20;;;;;;;7.83;5.03;;;8.80;99.90;;;;;;5040191;28;20226;-71
2022/01/03 05:22:10;;;;;;;8.53;5.20;;;8.80;99.90;;;;;;5040947;28;20236;-71
2022/01/03 05:24:59;;;;;;;8.43;4.97;;;8.70;99.90;;;;;;5041086;28;20233;-70
2022/01/03 05:27:49;;;;;;;8.47;5.40;;;8.70;99.90;;;;;;5040604;28;20223;-70
2022/01/03 05:30:39;;;;;;;9.70;5.77;;;8.70;99.90;;;;;;5036771;28;20216;-70
2022/01/03 05:33:28;;;;;;;9.80;5.70;;;8.70;99.90;;;;;;5035533;28;20239;-70
2022/01/03 05:36:17;;;;;;;9.17;5.40;;;8.70;99.90;;;;;;5054877;28;20226;-69
2022/01/03 05:39:06;;;;;;;7.83;5.23;;;8.60;99.90;;;;;;5050954;28;20295;-70
2022/01/03 05:41:55;;;;;;;12.20;5.70;;;8.60;99.90;;;;;;5039291;28;20307;-70
2022/01/03 05:44:45;;;;;;;8.70;5.57;;;8.60;99.90;;;;;;5038514;28;20234;-70
2022/01/03 05:47:34;;;;;;;9.37;5.53;;;8.70;99.90;;;;;;5037826;28;20266;-67
2022/01/03 05:50:24;;;;;;;10.60;5.93;;;8.60;99.90;;;;;;5055193;28;20220;-69
2022/01/03 05:53:13;;;;;;;9.77;5.90;;;8.60;99.90;;;;;;5041911;28;20214;-71
2022/01/03 05:56:03;;;;;;;10.60;5.57;;;8.60;99.90;;;;;;5037862;28;20229;-68
2022/01/03 05:58:56;;;;;;;9.53;6.20;;;8.60;99.90;;;;;;5018327;28;20230;-72
2022/01/03 06:01:47;;;;;;;10.57;6.17;;;8.50;99.90;;;;;;5013293;28;20589;-71
2022/01/03 06:04:42;;;;;;;11.37;6.03;;;8.50;99.90;;;;;;5033006;28;20234;-71
2022/01/03 06:07:31;;;;;;;8.37;5.63;;;8.50;99.90;;;;;;5027301;28;20215;-71
2022/01/03 06:10:21;;;;;;;10.00;6.50;;;8.50;99.90;;;;;;5027029;28;20224;-70
2022/01/03 06:13:10;;;;;;;10.33;6.00;;;8.50;99.90;;;;;;5021576;28;20279;-73
2022/01/03 06:16:00;;;;;;;9.60;5.63;;;8.50;99.90;;;;;;5019040;28;20283;-72
2022/01/03 06:18:52;;;;;;;10.43;6.13;;;8.50;99.90;;;;;;5034475;28;20595;-71
2022/01/03 06:21:44;;;;;;;9.30;6.03;;;8.50;99.90;;;;;;5028479;28;20235;-70
2022/01/03 06:24:38;;;;;;;10.93;5.87;;;8.50;99.90;;;;;;5028072;28;20634;-69
2022/01/03 06:27:31;;;;;;;11.03;5.80;;;8.50;99.90;;;;;;5030584;28;20658;-73
2022/01/03 06:30:20;;;;;;;9.47;5.90;;;8.50;99.90;;;;;;5024555;28;20232;-69
2022/01/03 06:33:12;;;;;;;9.10;6.27;;;8.50;99.90;;;;;;5027850;28;20218;-70
2022/01/03 06:36:07;;;;;;;11.10;6.10;;;8.50;99.90;;;;;;5020718;28;20227;-70
2022/01/03 06:38:57;;;;;;;10.87;5.57;;;8.50;99.90;;;;;;5038660;28;20226;-70
2022/01/03 06:41:47;;;;;;;8.30;5.57;;;8.50;99.90;;;;;;5036108;28;20323;-70
2022/01/03 06:44:37;;;;;;;14.00;6.40;;;8.50;99.90;;;;;;5021278;28;20223;-70
2022/01/03 06:47:26;;;;;;;9.47;5.63;;;8.50;99.90;;;;;;5036185;28;20229;-68
2022/01/03 06:50:15;;;;;;;9.83;6.17;;;8.50;99.90;;;;;;5031214;28;20232;-69
2022/01/03 06:53:05;;;;;;;10.83;6.20;;;8.50;99.90;;;;;;5038772;28;20651;-71
2022/01/03 06:55:57;;;;;;;10.90;6.23;;;8.40;99.90;;;;;;5018480;28;20226;-70
2022/01/03 06:58:50;;;;;;;8.50;6.10;;;8.40;99.90;;;;;;5022927;28;20310;-69
2022/01/03 07:01:39;;;;;;;10.77;6.00;;;8.50;99.90;;;;;;5021324;28;20230;-69
2022/01/03 07:04:29;;;;;;;10.87;6.63;;;8.50;99.90;;;;;;5033485;28;20254;-70
2022/01/03 07:07:24;;;;;;;10.53;6.47;;;8.50;99.90;;;;;;5031201;28;20719;-68
2022/01/03 07:10:17;;;;;;;13.83;6.40;;;8.50;99.90;;;;;;5021518;28;20227;-68
2022/01/03 07:13:05;;;;;;;18.13;14.17;;;8.50;99.90;;;;;;5038004;28;20222;-69
2022/01/03 07:19:03;;;;;;;12.90;6.87;;;8.60;99.90;;;;;;5021263;28;21864;-68
2022/01/03 07:21:51;;;;;;;9.13;6.90;;;8.60;99.90;;;;;;5022651;28;20214;-69
2022/01/03 07:24:41;;;;;;;11.43;7.03;;;8.60;99.90;;;;;;5022757;28;20219;-69
2022/01/03 07:27:31;;;;;;;9.70;6.40;;;8.60;99.90;;;;;;5035335;28;20544;-70
2022/01/03 07:30:19;;;;;;;9.47;6.37;;;8.70;99.90;;;;;;5037686;28;20269;-70
2022/01/03 07:33:13;;;;;;;14.80;6.97;;;8.60;99.90;;;;;;5024304;28;20270;-69
2022/01/03 07:36:02;;;;;;;10.80;6.83;;;8.60;99.90;;;;;;5032558;28;20227;-69
2022/01/03 07:38:50;;;;;;;11.63;7.27;;;8.70;99.90;;;;;;5041416;28;20266;-69
2022/01/03 07:41:39;;;;;;;11.20;6.70;;;8.70;99.90;;;;;;5034173;28;20227;-68
2022/01/03 07:44:29;;;;;;;15.13;10.57;;;8.80;99.90;;;;;;5036498;28;20301;-70
2022/01/03 07:47:18;;;;;;;13.37;7.37;;;8.70;99.90;;;;;;5039417;28;20221;-69
2022/01/03 07:50:09;;;;;;;13.03;6.80;;;8.80;99.90;;;;;;5028053;28;20247;-69
2022/01/03 07:52:59;;;;;;;9.00;6.20;;;8.80;99.90;;;;;;5019646;28;20365;-69
2022/01/03 07:55:48;;;;;;;9.77;6.50;;;8.80;99.90;;;;;;5034734;28;20235;-69
2022/01/03 07:58:36;;;;;;;12.13;6.30;;;8.90;99.90;;;;;;5020497;28;20234;-68
2022/01/03 08:01:26;;;;;;;10.27;6.10;;;9.00;99.90;;;;;;5016697;28;20230;-69
2022/01/03 08:04:15;;;;;;;13.17;6.60;;;9.00;99.90;;;;;;5033893;28;20234;-69
2022/01/03 08:07:06;;;;;;;10.80;6.57;;;9.00;99.90;;;;;;5032278;28;20223;-69
2022/01/03 08:09:55;;;;;;;17.03;6.60;;;9.10;99.90;;;;;;5025637;28;20220;-70
2022/01/03 08:12:44;;;;;;;13.30;6.70;;;9.10;99.90;;;;;;5017079;28;20781;-71
2022/01/03 08:15:33;;;;;;;10.90;7.10;;;9.10;99.90;;;;;;5018926;28;20226;-71
2022/01/03 08:18:24;;;;;;;12.07;7.00;;;9.10;99.90;;;;;;5029961;28;20233;-71
2022/01/03 08:21:14;;;;;;;12.20;6.53;;;9.20;99.90;;;;;;5030452;28;20694;-71
2022/01/03 08:24:02;;;;;;;8.60;6.43;;;9.20;99.90;;;;;;5016889;28;21671;-71
2022/01/03 08:26:51;;;;;;;12.83;6.80;;;9.20;99.90;;;;;;5028298;28;20597;-70
2022/01/03 08:29:40;;;;;;;11.37;6.90;;;9.20;99.90;;;;;;5033214;28;20234;-71
2022/01/03 08:32:29;;;;;;;12.77;6.80;;;9.30;99.90;;;;;;5023359;28;20238;-71
2022/01/03 08:35:19;;;;;;;13.03;7.00;;;9.30;99.90;;;;;;5033819;28;20318;-71
2022/01/03 08:38:07;;;;;;;20.77;10.50;;;9.40;99.90;;;;;;5021438;28;20257;-71
2022/01/03 08:40:56;;;;;;;15.60;7.63;;;9.40;99.90;;;;;;5035545;28;20956;-71
2022/01/03 08:43:45;;;;;;;10.67;6.43;;;9.40;99.90;;;;;;5033439;28;20228;-71
2022/01/03 08:46:33;;;;;;;14.17;6.53;;;9.50;99.90;;;;;;5025071;28;20228;-71
2022/01/03 08:49:22;;;;;;;11.00;6.70;;;9.50;99.90;;;;;;5015466;28;20709;-70
2022/01/03 08:52:13;;;;;;;10.27;6.70;;;9.50;99.90;;;;;;5021234;28;20315;-69
2022/01/03 08:55:02;;;;;;;11.20;6.47;;;9.40;99.90;;;;;;5030571;28;20251;-71
2022/01/03 08:57:51;;;;;;;11.73;6.67;;;9.40;99.90;;;;;;5055208;28;20230;-71
2022/01/03 09:00:40;;;;;;;12.93;7.37;;;9.40;99.90;;;;;;5053510;28;20228;-70
2022/01/03 09:03:28;;;;;;;10.02;6.78;;;9.40;99.90;;;;;;5044262;28;20702;-72
2022/01/03 09:06:17;;;;;;;13.17;7.00;;;9.50;99.90;;;;;;5053267;28;20635;-71
2022/01/03 09:09:08;;;;;;;14.90;6.93;;;9.50;99.90;;;;;;5059316;28;20227;-71
2022/01/03 09:11:56;;;;;;;15.27;7.27;;;9.50;99.90;;;;;;5056065;28;20235;-69
2022/01/03 09:14:45;;;;;;;13.13;7.43;;;9.50;99.90;;;;;;5041595;28;20257;-71
2022/01/03 09:17:34;;;;;;;14.17;7.23;;;9.50;99.90;;;;;;5040742;28;20227;-72
2022/01/03 09:20:22;;;;;;;10.17;7.27;;;9.50;99.90;;;;;;5052662;28;20227;-72
2022/01/03 09:23:16;;;;;;;12.23;7.20;;;9.50;99.90;;;;;;5054382;28;20224;-73
2022/01/03 09:29:11;;;;;;;9.85;6.53;;;9.50;99.90;;;;;;5052632;28;20857;-73
2022/01/03 09:32:00;;;;;;;9.93;6.57;;;9.40;99.90;;;;;;5052595;28;20644;-71
2022/01/03 09:34:49;;;;;;;10.33;6.53;;;9.40;99.90;;;;;;5044872;28;20223;-71
2022/01/03 09:37:39;;;;;;;9.97;7.07;;;9.30;99.90;;;;;;5041518;28;20230;-71
2022/01/03 09:40:28;;;;;;;8.27;5.90;;;9.40;99.90;;;;;;5040485;28;20235;-72
2022/01/03 09:43:19;;;;;;;8.47;6.20;;;9.40;99.90;;;;;;5055469;28;21002;-70
2022/01/03 09:46:10;;;;;;;7.65;5.85;;;9.40;99.90;;;;;;5049983;28;20255;-72
2022/01/03 09:48:59;;;;;;;7.93;5.83;;;9.40;99.90;;;;;;5047750;28;20292;-72
2022/01/03 09:51:48;;;;;;;9.83;5.80;;;9.40;99.90;;;;;;5048653;28;20331;-73
2022/01/03 09:54:39;;;;;;;7.27;5.20;;;9.30;99.90;;;;;;5044193;28;20252;-72
2022/01/03 09:57:30;;;;;;;6.83;5.30;;;9.10;99.90;;;;;;5048069;28;20236;-71
2022/01/03 10:00:23;;;;;;;8.77;5.80;;;9.20;99.90;;;;;;5035880;28;20238;-70
2022/01/03 10:03:12;;;;;;;8.40;5.43;;;9.20;99.90;;;;;;5051338;28;20599;-72
2022/01/03 10:06:03;;;;;;;8.43;5.60;;;9.10;99.90;;;;;;5037166;28;21826;-72
2022/01/03 10:08:53;;;;;;;8.10;5.60;;;9.10;99.90;;;;;;5049414;28;20232;-71
2022/01/03 10:11:42;;;;;;;8.37;5.80;;;9.00;99.90;;;;;;5037678;28;20223;-71
2022/01/03 10:14:30;;;;;;;7.73;5.70;;;8.90;99.90;;;;;;5053006;28;20746;-72
2022/01/03 10:17:21;;;;;;;9.27;4.90;;;8.70;99.90;;;;;;5039280;28;20235;-70
2022/01/03 10:20:12;;;;;;;6.73;4.60;;;8.80;99.90;;;;;;5040467;28;20289;-73
2022/01/03 10:23:11;;;;;;;6.03;4.97;;;8.60;99.90;;;;;;5038643;28;20245;-71
2022/01/03 10:26:16;;;;;;;8.53;5.27;;;8.60;99.90;;;;;;5051536;28;20223;-73
2022/01/03 10:29:13;;;;;;;7.00;5.27;;;8.50;99.90;;;;;;5034743;28;20228;-70
2022/01/03 10:32:05;;;;;;;8.23;4.83;;;8.60;99.90;;;;;;5054736;28;20541;-69
2022/01/03 10:34:55;;;;;;;10.37;5.43;;;8.50;99.90;;;;;;5042634;28;20218;-69
2022/01/03 10:37:44;;;;;;;10.17;4.87;;;8.60;99.90;;;;;;5051584;28;20227;-71
2022/01/03 10:40:33;;;;;;;7.70;5.13;;;8.60;99.90;;;;;;5049394;28;20222;-70
2022/01/03 10:43:23;;;;;;;7.50;4.30;;;8.50;99.90;;;;;;5049633;28;20223;-70
2022/01/03 10:46:20;;;;;;;6.00;4.10;;;8.60;99.90;;;;;;5041223;28;20221;-71
2022/01/03 10:49:12;;;;;;;7.00;4.80;;;8.60;99.90;;;;;;5053565;28;20251;-72
2022/01/03 10:52:19;;;;;;;9.50;4.40;;;8.60;99.90;;;;;;5054203;28;20226;-69
2022/01/03 10:55:12;;;;;;;8.43;4.17;;;8.70;99.90;;;;;;5024359;28;20330;-70
2022/01/03 10:58:02;;;;;;;7.27;4.50;;;8.70;99.90;;;;;;5035029;28;20303;-69
2022/01/03 11:00:51;;;;;;;7.67;3.20;;;8.70;99.90;;;;;;5034796;28;20235;-71
2022/01/03 11:03:44;;;;;;;6.03;3.80;;;8.70;99.90;;;;;;5031982;28;20647;-71
2022/01/03 11:06:49;;;;;;;8.10;3.60;;;8.70;99.90;;;;;;5031060;28;20222;-71
2022/01/03 11:12:45;;;;;;;8.63;3.77;;;8.60;99.90;;;;;;5029583;28;20221;-70
2022/01/03 11:15:37;;;;;;;7.07;3.83;;;8.60;99.90;;;;;;5030839;28;20248;-70
2022/01/03 11:18:28;;;;;;;10.90;6.57;;;8.70;99.90;;;;;;5029009;28;20216;-71
2022/01/03 11:21:19;;;;;;;5.03;3.20;;;8.70;99.90;;;;;;5030488;28;20232;-69
2022/01/03 11:24:09;;;;;;;6.43;2.97;;;8.80;99.90;;;;;;5029689;28;20559;-70
2022/01/03 11:27:00;;;;;;;9.30;3.27;;;8.70;99.90;;;;;;5030691;28;20220;-69
2022/01/03 11:29:53;;;;;;;7.77;3.23;;;8.80;99.90;;;;;;5033223;28;20273;-70
2022/01/03 11:32:43;;;;;;;7.50;2.90;;;8.80;99.90;;;;;;5016549;28;20238;-70
2022/01/03 11:35:33;;;;;;;7.97;3.43;;;8.80;99.90;;;;;;5034680;28;20231;-70
2022/01/03 11:38:26;;;;;;;5.77;3.20;;;8.80;99.90;;;;;;5031693;28;20534;-71
2022/01/03 11:41:16;;;;;;;6.33;3.40;;;8.80;99.90;;;;;;5033294;28;20226;-71
2022/01/03 11:44:11;;;;;;;5.23;3.30;;;8.80;99.90;;;;;;5029688;28;20244;-71
2022/01/03 11:47:00;;;;;;;4.17;3.17;;;8.80;99.90;;;;;;5031054;28;20260;-70
2022/01/03 11:49:50;;;;;;;6.43;3.57;;;8.80;99.90;;;;;;5029832;28;20227;-70
2022/01/03 11:52:41;;;;;;;7.10;4.27;;;8.80;99.90;;;;;;5029128;28;20226;-71
2022/01/03 11:55:30;;;;;;;7.17;4.30;;;8.80;99.90;;;;;;5045271;28;20323;-71
2022/01/03 11:58:50;;;;;;;5.77;4.03;;;8.80;99.90;;;;;;5036494;28;20223;-69
2022/01/03 12:04:58;;;;;;;7.43;5.20;;;8.90;99.90;;;;;;5055230;28;20543;-65
2022/01/03 12:08:00;;;;;;;8.53;4.73;;;8.80;99.90;;;;;;5041331;28;20226;-65
2022/01/03 12:10:49;;;;;;;8.17;4.73;;;8.90;99.90;;;;;;5052983;28;20216;-71
2022/01/03 12:13:50;;;;;;;8.93;7.10;;;9.00;99.90;;;;;;5053999;28;20702;-71
2022/01/03 12:16:45;;;;;;;6.13;5.20;;;9.00;99.90;;;;;;5052606;28;20228;-69
2022/01/03 12:19:35;;;;;;;7.53;5.30;;;9.00;99.90;;;;;;5040401;28;20250;-70
2022/01/03 12:22:24;;;;;;;8.67;5.70;;;9.00;99.90;;;;;;5051159;28;20223;-69
2022/01/03 12:25:24;;;;;;;7.53;5.93;;;9.00;99.90;;;;;;5050511;28;20236;-72
2022/01/03 12:28:15;;;;;;;10.63;6.50;;;8.90;99.90;;;;;;5034618;28;20243;-77
2022/01/03 12:31:03;;;;;;;8.53;5.70;;;9.00;99.90;;;;;;5039416;28;20436;-74
2022/01/03 12:34:21;;;;;;;10.40;5.77;;;9.10;99.90;;;;;;5053086;28;20301;-75
2022/01/03 12:37:17;;;;;;;9.17;6.00;;;9.10;99.90;;;;;;5039171;28;20235;-73
2022/01/03 12:40:17;;;;;;;7.27;5.70;;;9.10;99.90;;;;;;5047887;28;20367;-71
2022/01/03 12:43:09;;;;;;;9.40;6.20;;;9.00;99.90;;;;;;5037656;28;20227;-75
2022/01/03 12:45:59;;;;;;;9.03;6.37;;;9.00;99.90;;;;;;5041320;28;20253;-73
2022/01/03 12:48:48;;;;;;;9.93;6.87;;;9.10;99.90;;;;;;5048352;28;20234;-72
2022/01/03 12:51:38;;;;;;;13.80;7.80;;;9.00;99.90;;;;;;5033395;28;20227;-75
2022/01/03 12:54:41;;;;;;;12.73;7.47;;;9.00;99.90;;;;;;5048353;28;20305;-72
2022/01/03 12:57:32;;;;;;;10.00;6.83;;;9.00;99.90;;;;;;5051129;28;20222;-71
2022/01/03 13:00:41;;;;;;;10.60;6.97;;;9.00;99.90;;;;;;5048437;28;20220;-74
2022/01/03 13:03:43;;;;;;;12.07;7.70;;;9.00;99.90;;;;;;5049201;28;20232;-74
2022/01/03 13:06:33;;;;;;;10.80;7.97;;;9.00;99.90;;;;;;5052057;28;20232;-72
2022/01/03 13:09:25;;;;;;;10.67;7.93;;;8.90;99.90;;;;;;5051420;28;20230;-73
2022/01/03 13:12:14;;;;;;;11.57;7.33;;;8.90;99.90;;;;;;5051258;28;20219;-73
2022/01/03 13:15:04;;;;;;;10.50;6.97;;;8.80;99.90;;;;;;5034939;28;20219;-73
2022/01/03 13:18:17;;;;;;;11.90;8.00;;;8.90;99.90;;;;;;5048872;28;20224;-71
2022/01/03 13:21:07;;;;;;;11.53;8.43;;;8.80;99.90;;;;;;5050671;28;20719;-71
2022/01/03 13:23:59;;;;;;;14.27;7.83;;;8.80;99.90;;;;;;5046821;28;20246;-72
2022/01/03 13:27:08;;;;;;;13.00;8.03;;;8.80;99.90;;;;;;5053677;28;20225;-71
2022/01/03 13:29:58;;;;;;;12.47;7.70;;;8.80;99.90;;;;;;5050755;28;20216;-72
2022/01/03 13:32:57;;;;;;;14.67;10.57;;;8.70;99.90;;;;;;5037203;28;20222;-72
2022/01/03 13:36:00;;;;;;;15.87;10.03;;;8.70;99.90;;;;;;5057367;28;20241;-70
2022/01/03 13:38:48;;;;;;;16.13;8.77;;;8.70;99.90;;;;;;5055444;28;20576;-72
2022/01/03 13:41:39;;;;;;;11.30;8.03;;;8.70;99.90;;;;;;5055675;28;20581;-72
2022/01/03 13:50:52;;;;;;;14.67;9.10;;;8.60;99.90;;;;;;5035834;28;20662;-70
2022/01/03 13:53:49;;;;;;;12.20;7.97;;;8.60;99.90;;;;;;5050402;28;20678;-70
2022/01/03 13:56:42;;;;;;;14.10;8.37;;;8.60;99.90;;;;;;5059445;28;20255;-73
2022/01/03 13:59:36;;;;;;;12.43;8.50;;;8.60;99.90;;;;;;5042691;28;20212;-72
2022/01/03 14:02:26;;;;;;;14.87;8.60;;;8.50;99.90;;;;;;5042572;28;20245;-70
2022/01/03 14:05:15;;;;;;;13.53;9.10;;;8.50;99.90;;;;;;5056572;28;20263;-72
2022/01/03 14:08:05;;;;;;;16.00;9.53;;;8.50;99.90;;;;;;5054596;28;20239;-69
2022/01/03 14:10:54;;;;;;;13.47;9.70;;;8.60;99.90;;;;;;5057407;28;20221;-72
2022/01/03 14:13:43;;;;;;;16.03;9.67;;;8.60;99.90;;;;;;5043381;28;20214;-69
2022/01/03 14:17:00;;;;;;;15.00;10.43;;;8.60;99.90;;;;;;5041911;28;20225;-70
2022/01/03 14:19:59;;;;;;;15.30;11.37;;;8.60;99.90;;;;;;5037110;28;20212;-71
2022/01/03 14:22:48;;;;;;;15.67;12.20;;;8.60;99.90;;;;;;5054944;28;20219;-72
2022/01/03 14:25:36;;;;;;;28.83;16.40;;;8.60;99.90;;;;;;5036428;28;20585;-72
2022/01/03 14:28:27;;;;;;;16.07;12.67;;;8.50;99.90;;;;;;5051199;28;20241;-71
2022/01/03 14:31:16;;;;;;;16.60;12.23;;;8.50;99.90;;;;;;5048090;28;20799;-71
2022/01/03 14:34:06;;;;;;;19.70;13.33;;;8.60;99.90;;;;;;5040174;28;20655;-71
2022/01/03 14:36:56;;;;;;;19.30;13.50;;;8.50;99.90;;;;;;5044935;28;20234;-71
2022/01/03 14:39:54;;;;;;;19.60;14.50;;;8.60;99.90;;;;;;5060553;28;20222;-71
2022/01/03 14:42:54;;;;;;;19.13;13.73;;;8.50;99.90;;;;;;5042025;28;20232;-68
2022/01/03 14:45:47;;;;;;;17.07;13.10;;;8.50;99.90;;;;;;5041651;28;20746;-70
2022/01/03 14:48:37;;;;;;;14.67;12.17;;;8.50;99.90;;;;;;5056367;28;20287;-70
2022/01/03 14:51:36;;;;;;;17.80;12.97;;;8.50;99.90;;;;;;5056371;28;20217;-69
2022/01/03 14:54:29;;;;;;;15.73;11.80;;;8.50;99.90;;;;;;5044702;28;20264;-70
2022/01/03 14:57:22;;;;;;;14.97;12.33;;;8.50;99.90;;;;;;5053373;28;20226;-69
2022/01/03 15:00:13;;;;;;;17.23;12.17;;;8.50;99.90;;;;;;5044588;28;20235;-70
2022/01/03 15:03:02;;;;;;;16.10;12.00;;;8.50;99.90;;;;;;5042936;28;20224;-70
2022/01/03 15:05:55;;;;;;;14.73;12.30;;;8.60;99.90;;;;;;5048152;28;20222;-68
2022/01/03 15:08:45;;;;;;;12.77;10.10;;;8.60;99.90;;;;;;5038729;28;20837;-71
2022/01/03 15:11:34;;;;;;;15.80;10.60;;;8.60;99.90;;;;;;5037136;28;20226;-70
2022/01/03 15:14:22;;;;;;;18.97;10.87;;;8.50;99.90;;;;;;5051836;28;20245;-72
2022/01/03 15:17:11;;;;;;;15.07;9.90;;;8.50;99.90;;;;;;5042277;28;20741;-70